sensor_id;sensor_type;location;lat;lon;timestamp;pressure;altitude;pressure_sealevel;temperature;humidity
21781;BME280;52576;53.614;9.894;2022-11-15T00:00:41;100647.38;;;6.13;100.00
21781;BME280;52576;53.614;9.894;2022-11-15T00:02:02;100636.94;;;6.12;100.00
21781;BME280;52576;53.614;9.894;2022-11-15T00:03:27;100640.25;;;6.14;100.00
21781;BME280;52576;53.614;9.894;2022-11-15T00:04:48;100634.09;;;6.13;100.00
21781;BME280;52576;53.614;9.894;2022-11-15T00:06:09;100631.25;;;6.15;100.00
21781;BME280;52576;53.614;9.894;2022-11-15T00:07:31;100630.59;;;6.13;100.00
21781;BME280;52576;53.614;9.894;2022-11-15T00:09:13;100632.09;;;6.15;100.00
21781;BME280;52576;53.614;9.894;2022-11-15T00:10:35;100636.75;;;6.13;100.00
21781;BME280;52576;53.614;9.894;2022-11-15T00:11:55;100637.59;;;6.14;100.00
21781;BME280;52576;53.614;9.894;2022-11-15T00:13:17;100635.91;;;6.13;100.00
21781;BME280;52576;53.614;9.894;2022-11-15T00:14:37;100632.44;;;6.12;100.00
21781;BME280;52576;53.614;9.894;2022-11-15T00:16:01;100640.41;;;6.12;100.00
21781;BME280;52576;53.614;9.894;2022-11-15T00:17:22;100644.88;;;6.12;100.00
21781;BME280;52576;53.614;9.894;2022-11-15T00:18:45;100637.09;;;6.10;100.00
21781;BME280;52576;53.614;9.894;2022-11-15T00:20:11;100644.06;;;6.11;100.00
21781;BME280;52576;53.614;9.894;2022-11-15T00:21:31;100672.44;;;6.11;100.00
21781;BME280;52576;53.614;9.894;2022-11-15T00:22:53;100633.44;;;6.11;100.00
21781;BME280;52576;53.614;9.894;2022-11-15T00:24:14;100628.78;;;6.13;100.00
21781;BME280;52576;53.614;9.894;2022-11-15T00:25:35;100634.94;;;6.14;100.00
21781;BME280;52576;53.614;9.894;2022-11-15T00:26:57;100636.38;;;6.16;100.00
21781;BME280;52576;53.614;9.894;2022-11-15T00:28:19;100635.22;;;6.19;100.00
21781;BME280;52576;53.614;9.894;2022-11-15T00:29:40;100634.03;;;6.21;100.00
21781;BME280;52576;53.614;9.894;2022-11-15T00:31:06;100638.81;;;6.26;100.00
21781;BME280;52576;53.614;9.894;2022-11-15T00:32:30;100637.44;;;6.30;100.00
21781;BME280;52576;53.614;9.894;2022-11-15T00:33:54;100648.34;;;6.35;100.00
21781;BME280;52576;53.614;9.894;2022-11-15T00:35:16;100646.16;;;6.38;100.00
21781;BME280;52576;53.614;9.894;2022-11-15T00:36:37;100640.28;;;6.43;100.00
21781;BME280;52576;53.614;9.894;2022-11-15T00:37:59;100642.44;;;6.48;100.00
21781;BME280;52576;53.614;9.894;2022-11-15T00:39:19;100635.72;;;6.52;100.00
21781;BME280;52576;53.614;9.894;2022-11-15T00:40:41;100631.72;;;6.56;100.00
21781;BME280;52576;53.614;9.894;2022-11-15T00:42:03;100639.13;;;6.60;100.00
21781;BME280;52576;53.614;9.894;2022-11-15T00:43:24;100632.66;;;6.63;100.00
21781;BME280;52576;53.614;9.894;2022-11-15T00:44:45;100624.31;;;6.66;100.00
21781;BME280;52576;53.614;9.894;2022-11-15T00:46:06;100629.25;;;6.69;100.00
21781;BME280;52576;53.614;9.894;2022-11-15T00:47:28;100624.59;;;6.71;100.00
21781;BME280;52576;53.614;9.894;2022-11-15T00:48:49;100626.88;;;6.74;100.00
21781;BME280;52576;53.614;9.894;2022-11-15T00:50:12;100627.91;;;6.73;100.00
21781;BME280;52576;53.614;9.894;2022-11-15T00:51:35;100632.66;;;6.77;100.00
21781;BME280;52576;53.614;9.894;2022-11-15T00:52:57;100631.63;;;6.78;100.00
21781;BME280;52576;53.614;9.894;2022-11-15T00:54:18;100631.47;;;6.80;100.00
21781;BME280;52576;53.614;9.894;2022-11-15T00:55:40;100630.66;;;6.79;100.00
21781;BME280;52576;53.614;9.894;2022-11-15T00:57:01;100632.28;;;6.80;100.00
21781;BME280;52576;53.614;9.894;2022-11-15T00:58:23;100636.78;;;6.80;100.00
21781;BME280;52576;53.614;9.894;2022-11-15T00:59:45;100639.28;;;6.81;100.00
21781;BME280;52576;53.614;9.894;2022-11-15T01:01:08;100638.25;;;6.82;100.00
21781;BME280;52576;53.614;9.894;2022-11-15T01:02:29;100637.22;;;6.83;100.00
21781;BME280;52576;53.614;9.894;2022-11-15T01:03:51;100626.44;;;6.85;100.00
21781;BME280;52576;53.614;9.894;2022-11-15T01:05:12;100627.06;;;6.87;100.00
21781;BME280;52576;53.614;9.894;2022-11-15T01:06:34;100631.38;;;6.88;100.00
21781;BME280;52576;53.614;9.894;2022-11-15T01:07:55;100631.38;;;6.88;100.00
21781;BME280;52576;53.614;9.894;2022-11-15T01:09:16;100627.72;;;6.89;100.00
21781;BME280;52576;53.614;9.894;2022-11-15T01:10:38;100630.38;;;6.89;100.00
21781;BME280;52576;53.614;9.894;2022-11-15T01:11:58;100628.53;;;6.89;100.00
21781;BME280;52576;53.614;9.894;2022-11-15T01:13:20;100627.72;;;6.89;100.00
21781;BME280;52576;53.614;9.894;2022-11-15T01:14:40;100626.72;;;6.90;100.00
21781;BME280;52576;53.614;9.894;2022-11-15T01:16:06;100632.84;;;6.90;100.00
21781;BME280;52576;53.614;9.894;2022-11-15T01:17:27;100616.25;;;6.88;100.00
21781;BME280;52576;53.614;9.894;2022-11-15T01:18:48;100612.78;;;6.88;100.00
21781;BME280;52576;53.614;9.894;2022-11-15T01:20:12;100620.94;;;6.86;100.00
21781;BME280;52576;53.614;9.894;2022-11-15T01:21:33;100618.63;;;6.83;100.00
21781;BME280;52576;53.614;9.894;2022-11-15T01:22:55;100613.69;;;6.80;100.00
21781;BME280;52576;53.614;9.894;2022-11-15T01:24:16;100616.91;;;6.76;100.00
21781;BME280;52576;53.614;9.894;2022-11-15T01:25:38;100617.28;;;6.73;100.00
21781;BME280;52576;53.614;9.894;2022-11-15T01:26:58;100615.13;;;6.68;100.00
21781;BME280;52576;53.614;9.894;2022-11-15T01:28:20;100609.38;;;6.65;100.00
21781;BME280;52576;53.614;9.894;2022-11-15T01:29:41;100621.19;;;6.62;100.00
21781;BME280;52576;53.614;9.894;2022-11-15T01:31:05;100620.72;;;6.59;100.00
21781;BME280;52576;53.614;9.894;2022-11-15T01:32:26;100614.94;;;6.55;100.00
21781;BME280;52576;53.614;9.894;2022-11-15T01:33:48;100610.00;;;6.52;100.00
21781;BME280;52576;53.614;9.894;2022-11-15T01:35:09;100610.38;;;6.49;100.00
21781;BME280;52576;53.614;9.894;2022-11-15T01:36:32;100615.03;;;6.47;100.00
21781;BME280;52576;53.614;9.894;2022-11-15T01:37:53;100613.91;;;6.42;100.00
21781;BME280;52576;53.614;9.894;2022-11-15T01:39:14;100613.72;;;6.43;100.00
21781;BME280;52576;53.614;9.894;2022-11-15T01:40:36;100613.13;;;6.41;100.00
21781;BME280;52576;53.614;9.894;2022-11-15T01:41:58;100602.38;;;6.34;100.00
21781;BME280;52576;53.614;9.894;2022-11-15T01:43:21;100615.50;;;6.36;100.00
21781;BME280;52576;53.614;9.894;2022-11-15T01:44:44;100615.81;;;6.33;100.00
21781;BME280;52576;53.614;9.894;2022-11-15T01:46:22;100604.59;;;6.31;100.00
21781;BME280;52576;53.614;9.894;2022-11-15T01:47:47;100603.09;;;6.28;100.00
21781;BME280;52576;53.614;9.894;2022-11-15T01:49:13;100605.09;;;6.26;100.00
21781;BME280;52576;53.614;9.894;2022-11-15T01:50:35;100600.16;;;6.23;100.00
21781;BME280;52576;53.614;9.894;2022-11-15T01:51:58;100601.34;;;6.21;100.00
21781;BME280;52576;53.614;9.894;2022-11-15T01:53:23;100600.22;;;6.15;100.00
21781;BME280;52576;53.614;9.894;2022-11-15T01:54:47;100594.75;;;6.17;100.00
21781;BME280;52576;53.614;9.894;2022-11-15T01:56:11;100597.56;;;6.15;100.00
21781;BME280;52576;53.614;9.894;2022-11-15T01:57:34;100602.22;;;6.13;100.00
21781;BME280;52576;53.614;9.894;2022-11-15T01:58:58;100601.59;;;6.11;100.00
21781;BME280;52576;53.614;9.894;2022-11-15T02:00:22;100602.41;;;6.12;100.00
21781;BME280;52576;53.614;9.894;2022-11-15T02:01:44;100557.50;;;5.88;100.00
21781;BME280;52576;53.614;9.894;2022-11-15T02:03:06;100593.97;;;6.08;100.00
21781;BME280;52576;53.614;9.894;2022-11-15T02:04:28;100582.72;;;6.06;100.00
21781;BME280;52576;53.614;9.894;2022-11-15T02:05:50;100582.09;;;6.04;100.00
21781;BME280;52576;53.614;9.894;2022-11-15T02:07:15;100590.38;;;6.01;100.00
21781;BME280;52576;53.614;9.894;2022-11-15T02:08:38;100579.78;;;6.01;100.00
21781;BME280;52576;53.614;9.894;2022-11-15T02:10:02;100579.16;;;5.99;100.00
21781;BME280;52576;53.614;9.894;2022-11-15T02:11:25;100576.66;;;5.98;100.00
21781;BME280;52576;53.614;9.894;2022-11-15T02:12:47;100571.53;;;5.96;100.00
21781;BME280;52576;53.614;9.894;2022-11-15T02:14:10;100578.88;;;5.94;100.00
21781;BME280;52576;53.614;9.894;2022-11-15T02:15:39;100570.25;;;5.92;100.00
21781;BME280;52576;53.614;9.894;2022-11-15T02:17:07;100569.59;;;5.90;100.00
21781;BME280;52576;53.614;9.894;2022-11-15T02:18:32;100575.09;;;5.89;100.00
21781;BME280;52576;53.614;9.894;2022-11-15T02:22:02;100582.56;;;5.85;100.00
21781;BME280;52576;53.614;9.894;2022-11-15T02:25:37;100573.13;;;5.83;100.00
21781;BME280;52576;53.614;9.894;2022-11-15T02:29:13;100575.31;;;5.79;100.00
21781;BME280;52576;53.614;9.894;2022-11-15T02:30:45;100577.97;;;5.79;100.00
21781;BME280;52576;53.614;9.894;2022-11-15T02:32:12;100572.81;;;5.78;100.00
21781;BME280;52576;53.614;9.894;2022-11-15T02:33:41;100562.56;;;5.75;100.00
21781;BME280;52576;53.614;9.894;2022-11-15T02:35:12;100563.38;;;5.75;100.00
21781;BME280;52576;53.614;9.894;2022-11-15T02:36:40;100565.38;;;5.73;100.00
21781;BME280;52576;53.614;9.894;2022-11-15T02:38:07;100567.38;;;5.71;100.00
21781;BME280;52576;53.614;9.894;2022-11-15T02:39:36;100569.22;;;5.71;100.00
21781;BME280;52576;53.614;9.894;2022-11-15T02:41:04;100564.09;;;5.69;100.00
21781;BME280;52576;53.614;9.894;2022-11-15T02:42:31;100555.69;;;5.66;100.00
21781;BME280;52576;53.614;9.894;2022-11-15T02:44:17;100559.50;;;5.63;100.00
21781;BME280;52576;53.614;9.894;2022-11-15T02:45:46;100557.03;;;5.62;100.00
21781;BME280;52576;53.614;9.894;2022-11-15T02:47:11;100552.91;;;5.59;100.00
21781;BME280;52576;53.614;9.894;2022-11-15T02:48:36;100560.22;;;5.57;100.00
21781;BME280;52576;53.614;9.894;2022-11-15T02:49:59;100555.25;;;5.54;100.00
21781;BME280;52576;53.614;9.894;2022-11-15T02:51:22;100556.44;;;5.52;100.00
21781;BME280;52576;53.614;9.894;2022-11-15T02:52:45;100548.00;;;5.48;100.00
21781;BME280;52576;53.614;9.894;2022-11-15T02:54:07;100544.06;;;5.44;100.00
21781;BME280;52576;53.614;9.894;2022-11-15T02:55:33;100547.69;;;5.43;100.00
21781;BME280;52576;53.614;9.894;2022-11-15T02:56:58;100544.38;;;5.41;100.00
21781;BME280;52576;53.614;9.894;2022-11-15T02:58:46;100551.72;;;5.39;100.00
21781;BME280;52576;53.614;9.894;2022-11-15T03:00:12;100547.59;;;5.37;100.00
21781;BME280;52576;53.614;9.894;2022-11-15T03:01:48;100550.41;;;5.35;100.00
21781;BME280;52576;53.614;9.894;2022-11-15T03:03:24;100548.78;;;5.34;100.00
21781;BME280;52576;53.614;9.894;2022-11-15T03:04:55;100555.06;;;5.33;100.00
21781;BME280;52576;53.614;9.894;2022-11-15T03:06:23;100558.72;;;5.32;100.00
21781;BME280;52576;53.614;9.894;2022-11-15T03:07:52;100552.75;;;5.30;100.00
21781;BME280;52576;53.614;9.894;2022-11-15T03:09:30;100552.75;;;5.30;100.00
21781;BME280;52576;53.614;9.894;2022-11-15T03:11:02;100552.75;;;5.30;100.00
21781;BME280;52576;53.614;9.894;2022-11-15T03:12:27;100559.69;;;5.31;100.00
21781;BME280;52576;53.614;9.894;2022-11-15T03:13:53;100552.94;;;5.29;100.00
21781;BME280;52576;53.614;9.894;2022-11-15T03:15:21;100552.41;;;5.33;100.00
21781;BME280;52576;53.614;9.894;2022-11-15T03:16:49;100549.56;;;5.35;100.00
21781;BME280;52576;53.614;9.894;2022-11-15T03:18:15;100549.09;;;5.31;100.00
21781;BME280;52576;53.614;9.894;2022-11-15T03:19:43;100546.63;;;5.30;100.00
21781;BME280;52576;53.614;9.894;2022-11-15T03:21:07;100547.09;;;5.33;100.00
21781;BME280;52576;53.614;9.894;2022-11-15T03:22:32;100553.41;;;5.32;100.00
21781;BME280;52576;53.614;9.894;2022-11-15T03:23:55;100550.78;;;5.32;100.00
21781;BME280;52576;53.614;9.894;2022-11-15T03:25:22;100555.22;;;5.32;100.00
21781;BME280;52576;53.614;9.894;2022-11-15T03:26:45;100556.06;;;5.32;100.00
21781;BME280;52576;53.614;9.894;2022-11-15T03:28:12;100552.41;;;5.33;100.00
21781;BME280;52576;53.614;9.894;2022-11-15T03:29:37;100556.06;;;5.32;100.00
21781;BME280;52576;53.614;9.894;2022-11-15T03:31:01;100545.47;;;5.32;100.00
21781;BME280;52576;53.614;9.894;2022-11-15T03:32:47;100542.81;;;5.32;100.00
21781;BME280;52576;53.614;9.894;2022-11-15T03:34:14;100539.16;;;5.33;100.00
21781;BME280;52576;53.614;9.894;2022-11-15T03:35:39;100541.81;;;5.33;100.00
21781;BME280;52576;53.614;9.894;2022-11-15T03:37:02;100538.31;;;5.33;100.00
21781;BME280;52576;53.614;9.894;2022-11-15T03:38:26;100545.28;;;5.34;100.00
21781;BME280;52576;53.614;9.894;2022-11-15T03:39:48;100540.97;;;5.33;100.00
21781;BME280;52576;53.614;9.894;2022-11-15T03:41:15;100544.44;;;5.33;100.00
21781;BME280;52576;53.614;9.894;2022-11-15T03:42:42;100539.16;;;5.33;100.00
21781;BME280;52576;53.614;9.894;2022-11-15T03:44:13;100540.97;;;5.33;100.00
21781;BME280;52576;53.614;9.894;2022-11-15T03:45:40;100537.34;;;5.34;100.00
21781;BME280;52576;53.614;9.894;2022-11-15T03:47:07;100532.22;;;5.32;100.00
21781;BME280;52576;53.614;9.894;2022-11-15T03:48:34;100537.34;;;5.34;100.00
21781;BME280;52576;53.614;9.894;2022-11-15T03:49:59;100533.84;;;5.33;100.00
21781;BME280;52576;53.614;9.894;2022-11-15T03:51:21;100535.53;;;5.34;100.00
21781;BME280;52576;53.614;9.894;2022-11-15T03:52:44;100533.66;;;5.35;100.00
21781;BME280;52576;53.614;9.894;2022-11-15T03:54:06;100537.34;;;5.34;100.00
21781;BME280;52576;53.614;9.894;2022-11-15T03:55:28;100539.81;;;5.35;100.00
21781;BME280;52576;53.614;9.894;2022-11-15T03:56:49;100545.09;;;5.35;100.00
21781;BME280;52576;53.614;9.894;2022-11-15T03:58:10;100542.28;;;5.37;100.00
21781;BME280;52576;53.614;9.894;2022-11-15T03:59:32;100536.97;;;5.37;100.00
21781;BME280;52576;53.614;9.894;2022-11-15T04:00:52;100544.75;;;5.38;100.00
21781;BME280;52576;53.614;9.894;2022-11-15T04:02:15;100551.06;;;5.37;100.00
21781;BME280;52576;53.614;9.894;2022-11-15T04:03:37;100554.53;;;5.38;100.00
21781;BME280;52576;53.614;9.894;2022-11-15T04:04:59;100559.81;;;5.38;100.00
21781;BME280;52576;53.614;9.894;2022-11-15T04:06:20;100548.41;;;5.37;100.00
21781;BME280;52576;53.614;9.894;2022-11-15T04:07:42;100553.72;;;5.37;100.00
21781;BME280;52576;53.614;9.894;2022-11-15T04:09:04;100548.25;;;5.39;100.00
21781;BME280;52576;53.614;9.894;2022-11-15T04:10:24;100551.72;;;5.39;100.00
21781;BME280;52576;53.614;9.894;2022-11-15T04:11:46;100548.06;;;5.40;100.00
21781;BME280;52576;53.614;9.894;2022-11-15T04:13:07;100549.69;;;5.41;100.00
21781;BME280;52576;53.614;9.894;2022-11-15T04:14:28;100543.41;;;5.42;100.00
21781;BME280;52576;53.614;9.894;2022-11-15T04:15:49;100544.88;;;5.45;100.00
21781;BME280;52576;53.614;9.894;2022-11-15T04:17:10;100537.09;;;5.43;100.00
21781;BME280;52576;53.614;9.894;2022-11-15T04:18:31;100542.03;;;5.46;100.00
21781;BME280;52576;53.614;9.894;2022-11-15T04:19:54;100541.06;;;5.47;100.00
21781;BME280;52576;53.614;9.894;2022-11-15T04:21:33;100538.88;;;5.51;100.00
21781;BME280;52576;53.614;9.894;2022-11-15T04:23:14;100529.72;;;5.53;100.00
21781;BME280;52576;53.614;9.894;2022-11-15T04:24:54;100526.72;;;5.56;100.00
21781;BME280;52576;53.614;9.894;2022-11-15T04:26:17;100535.16;;;5.60;100.00
21781;BME280;52576;53.614;9.894;2022-11-15T04:27:39;100540.09;;;5.63;100.00
21781;BME280;52576;53.614;9.894;2022-11-15T04:29:00;100553.03;;;5.66;100.00
21781;BME280;52576;53.614;9.894;2022-11-15T04:30:39;100525.47;;;5.67;100.00
21781;BME280;52576;53.614;9.894;2022-11-15T04:32:01;100536.19;;;5.73;100.00
21781;BME280;52576;53.614;9.894;2022-11-15T04:33:22;100543.81;;;5.76;100.00
21781;BME280;52576;53.614;9.894;2022-11-15T04:34:44;100533.38;;;5.75;100.00
21781;BME280;52576;53.614;9.894;2022-11-15T04:36:07;100530.03;;;5.81;100.00
21781;BME280;52576;53.614;9.894;2022-11-15T04:37:46;100546.44;;;5.84;100.00
21781;BME280;52576;53.614;9.894;2022-11-15T04:39:09;100541.28;;;5.83;100.00
21781;BME280;52576;53.614;9.894;2022-11-15T04:40:29;100543.25;;;5.89;100.00
21781;BME280;52576;53.614;9.894;2022-11-15T04:41:51;100535.47;;;5.87;100.00
21781;BME280;52576;53.614;9.894;2022-11-15T04:43:13;100544.50;;;5.93;100.00
21781;BME280;52576;53.614;9.894;2022-11-15T04:44:34;100548.66;;;5.95;100.00
21781;BME280;52576;53.614;9.894;2022-11-15T04:45:55;100549.31;;;5.97;100.00
21781;BME280;52576;53.614;9.894;2022-11-15T04:47:17;100556.06;;;6.00;100.00
21781;BME280;52576;53.614;9.894;2022-11-15T04:48:39;100550.94;;;5.98;100.00
21781;BME280;52576;53.614;9.894;2022-11-15T04:50:00;100552.91;;;6.04;100.00
21781;BME280;52576;53.614;9.894;2022-11-15T04:51:22;100546.56;;;6.05;100.00
21781;BME280;52576;53.614;9.894;2022-11-15T04:52:50;100542.72;;;6.08;100.00
21781;BME280;52576;53.614;9.894;2022-11-15T04:54:12;100545.03;;;6.11;100.00
21781;BME280;52576;53.614;9.894;2022-11-15T04:55:33;100551.78;;;6.13;100.00
21781;BME280;52576;53.614;9.894;2022-11-15T04:56:54;100549.78;;;6.15;100.00
21781;BME280;52576;53.614;9.894;2022-11-15T04:58:15;100540.63;;;6.18;100.00
21781;BME280;52576;53.614;9.894;2022-11-15T04:59:36;100537.81;;;6.19;100.00
21781;BME280;52576;53.614;9.894;2022-11-15T05:00:58;100548.25;;;6.21;100.00
21781;BME280;52576;53.614;9.894;2022-11-15T05:02:26;100539.09;;;6.23;100.00
21781;BME280;52576;53.614;9.894;2022-11-15T05:04:08;100538.72;;;6.26;100.00
21781;BME280;52576;53.614;9.894;2022-11-15T05:05:50;100540.38;;;6.27;100.00
21781;BME280;52576;53.614;9.894;2022-11-15T05:07:12;100541.84;;;6.30;100.00
21781;BME280;52576;53.614;9.894;2022-11-15T05:08:33;100533.69;;;6.31;100.00
21781;BME280;52576;53.614;9.894;2022-11-15T05:09:54;100536.00;;;6.34;100.00
21781;BME280;52576;53.614;9.894;2022-11-15T05:11:16;100536.63;;;6.36;100.00
21781;BME280;52576;53.614;9.894;2022-11-15T05:12:37;100546.91;;;6.40;100.00
21781;BME280;52576;53.614;9.894;2022-11-15T05:13:58;100540.56;;;6.41;100.00
21781;BME280;52576;53.614;9.894;2022-11-15T05:15:19;100541.22;;;6.43;100.00
21781;BME280;52576;53.614;9.894;2022-11-15T05:16:40;100547.34;;;6.43;100.00
21781;BME280;52576;53.614;9.894;2022-11-15T05:18:02;100542.84;;;6.44;100.00
21781;BME280;52576;53.614;9.894;2022-11-15T05:19:23;100535.53;;;6.46;100.00
21781;BME280;52576;53.614;9.894;2022-11-15T05:20:45;100527.38;;;6.47;100.00
21781;BME280;52576;53.614;9.894;2022-11-15T05:22:06;100540.66;;;6.47;100.00
21781;BME280;52576;53.614;9.894;2022-11-15T05:23:28;100528.22;;;6.48;100.00
21781;BME280;52576;53.614;9.894;2022-11-15T05:24:51;100522.91;;;6.48;100.00
21781;BME280;52576;53.614;9.894;2022-11-15T05:26:12;100524.91;;;6.46;100.00
21781;BME280;52576;53.614;9.894;2022-11-15T05:27:34;100521.25;;;6.47;100.00
21781;BME280;52576;53.614;9.894;2022-11-15T05:28:57;100524.91;;;6.46;100.00
21781;BME280;52576;53.614;9.894;2022-11-15T05:30:19;100535.53;;;6.46;100.00
21781;BME280;52576;53.614;9.894;2022-11-15T05:31:41;100531.88;;;6.47;100.00
21781;BME280;52576;53.614;9.894;2022-11-15T05:33:03;100530.88;;;6.48;100.00
21781;BME280;52576;53.614;9.894;2022-11-15T05:34:24;100536.84;;;6.50;100.00
21781;BME280;52576;53.614;9.894;2022-11-15T05:35:50;100540.09;;;6.52;100.00
21781;BME280;52576;53.614;9.894;2022-11-15T05:37:15;100533.81;;;6.53;100.00
21781;BME280;52576;53.614;9.894;2022-11-15T05:38:38;100535.25;;;6.55;100.00
21781;BME280;52576;53.614;9.894;2022-11-15T05:40:00;100517.59;;;6.48;100.00
21781;BME280;52576;53.614;9.894;2022-11-15T05:41:29;100525.09;;;6.59;100.00
21781;BME280;52576;53.614;9.894;2022-11-15T05:42:51;100530.03;;;6.62;100.00
21781;BME280;52576;53.614;9.894;2022-11-15T05:44:14;100523.72;;;6.63;100.00
21781;BME280;52576;53.614;9.894;2022-11-15T05:45:38;100527.84;;;6.65;100.00
21781;BME280;52576;53.614;9.894;2022-11-15T05:46:59;100522.50;;;6.65;100.00
21781;BME280;52576;53.614;9.894;2022-11-15T05:48:21;100525.63;;;6.69;100.00
21781;BME280;52576;53.614;9.894;2022-11-15T05:49:44;100525.44;;;6.70;100.00
21781;BME280;52576;53.614;9.894;2022-11-15T05:51:06;100525.25;;;6.72;100.00
21781;BME280;52576;53.614;9.894;2022-11-15T05:52:30;100529.41;;;6.74;100.00
21781;BME280;52576;53.614;9.894;2022-11-15T05:53:55;100539.84;;;6.76;100.00
21781;BME280;52576;53.614;9.894;2022-11-15T05:55:18;100538.63;;;6.78;100.00
21781;BME280;52576;53.614;9.894;2022-11-15T05:56:39;100533.97;;;6.80;100.00
21781;BME280;52576;53.614;9.894;2022-11-15T05:58:01;100531.13;;;6.82;100.00
21781;BME280;52576;53.614;9.894;2022-11-15T05:59:23;100535.44;;;6.83;100.00
21781;BME280;52576;53.614;9.894;2022-11-15T06:00:45;100526.81;;;6.81;100.00
21781;BME280;52576;53.614;9.894;2022-11-15T06:02:07;100536.09;;;6.85;100.00
21781;BME280;52576;53.614;9.894;2022-11-15T06:03:28;100537.72;;;6.86;100.00
21781;BME280;52576;53.614;9.894;2022-11-15T06:04:51;100530.56;;;6.86;100.00
21781;BME280;52576;53.614;9.894;2022-11-15T06:06:13;100533.03;;;6.88;100.00
21781;BME280;52576;53.614;9.894;2022-11-15T06:07:36;100538.16;;;6.89;100.00
21781;BME280;52576;53.614;9.894;2022-11-15T06:08:58;100533.69;;;6.90;100.00
21781;BME280;52576;53.614;9.894;2022-11-15T06:10:20;100539.81;;;6.90;100.00
21781;BME280;52576;53.614;9.894;2022-11-15T06:11:41;100534.31;;;6.92;100.00
21781;BME280;52576;53.614;9.894;2022-11-15T06:13:04;100539.28;;;6.95;100.00
21781;BME280;52576;53.614;9.894;2022-11-15T06:14:26;100544.41;;;6.96;100.00
21781;BME280;52576;53.614;9.894;2022-11-15T06:15:48;100545.66;;;7.00;100.00
21781;BME280;52576;53.614;9.894;2022-11-15T06:17:09;100543.66;;;7.02;100.00
21781;BME280;52576;53.614;9.894;2022-11-15T06:18:32;100546.75;;;7.06;100.00
21781;BME280;52576;53.614;9.894;2022-11-15T06:19:54;100545.72;;;7.07;100.00
21781;BME280;52576;53.614;9.894;2022-11-15T06:21:16;100540.88;;;7.10;100.00
21781;BME280;52576;53.614;9.894;2022-11-15T06:22:37;100542.53;;;7.11;100.00
21781;BME280;52576;53.614;9.894;2022-11-15T06:23:59;100545.19;;;7.11;100.00
21781;BME280;52576;53.614;9.894;2022-11-15T06:25:21;100543.78;;;7.15;100.00
21781;BME280;52576;53.614;9.894;2022-11-15T06:26:42;100546.25;;;7.17;100.00
21781;BME280;52576;53.614;9.894;2022-11-15T06:28:04;100545.06;;;7.19;100.00
21781;BME280;52576;53.614;9.894;2022-11-15T06:29:24;100550.84;;;7.23;100.00
21781;BME280;52576;53.614;9.894;2022-11-15T06:30:45;100539.19;;;7.24;100.00
21781;BME280;52576;53.614;9.894;2022-11-15T06:32:12;100548.44;;;7.28;100.00
21781;BME280;52576;53.614;9.894;2022-11-15T06:33:34;100543.78;;;7.30;100.00
21781;BME280;52576;53.614;9.894;2022-11-15T06:34:55;100550.53;;;7.32;100.00
21781;BME280;52576;53.614;9.894;2022-11-15T06:36:17;100553.00;;;7.34;100.00
21781;BME280;52576;53.614;9.894;2022-11-15T06:37:39;100542.75;;;7.31;100.00
21781;BME280;52576;53.614;9.894;2022-11-15T06:39:02;100543.00;;;7.36;100.00
21781;BME280;52576;53.614;9.894;2022-11-15T06:40:24;100550.59;;;7.39;100.00
21781;BME280;52576;53.614;9.894;2022-11-15T06:41:46;100548.59;;;7.41;100.00
21781;BME280;52576;53.614;9.894;2022-11-15T06:43:07;100553.72;;;7.42;100.00
21781;BME280;52576;53.614;9.894;2022-11-15T06:44:28;100544.53;;;7.45;100.00
21781;BME280;52576;53.614;9.894;2022-11-15T06:45:49;100553.13;;;7.47;100.00
21781;BME280;52576;53.614;9.894;2022-11-15T06:47:11;100552.16;;;7.48;100.00
21781;BME280;52576;53.614;9.894;2022-11-15T06:48:33;100555.44;;;7.50;100.00
21781;BME280;52576;53.614;9.894;2022-11-15T06:49:54;100556.06;;;7.52;100.00
21781;BME280;52576;53.614;9.894;2022-11-15T06:51:15;100555.69;;;7.55;100.00
21781;BME280;52576;53.614;9.894;2022-11-15T06:52:37;100556.13;;;7.58;100.00
21781;BME280;52576;53.614;9.894;2022-11-15T06:53:59;100549.81;;;7.59;100.00
21781;BME280;52576;53.614;9.894;2022-11-15T06:55:22;100558.44;;;7.61;100.00
21781;BME280;52576;53.614;9.894;2022-11-15T06:56:43;100559.88;;;7.64;100.00
21781;BME280;52576;53.614;9.894;2022-11-15T06:58:05;100557.84;;;7.66;100.00
21781;BME280;52576;53.614;9.894;2022-11-15T06:59:27;100550.69;;;7.67;100.00
21781;BME280;52576;53.614;9.894;2022-11-15T07:00:49;100556.47;;;7.70;100.00
21781;BME280;52576;53.614;9.894;2022-11-15T07:02:12;100560.38;;;7.74;100.00
21781;BME280;52576;53.614;9.894;2022-11-15T07:03:34;100560.00;;;7.77;100.00
21781;BME280;52576;53.614;9.894;2022-11-15T07:04:56;100555.69;;;7.76;100.00
21781;BME280;52576;53.614;9.894;2022-11-15T07:06:18;100555.09;;;7.81;100.00
21781;BME280;52576;53.614;9.894;2022-11-15T07:07:40;100560.25;;;7.82;100.00
21781;BME280;52576;53.614;9.894;2022-11-15T07:09:02;100561.72;;;7.85;100.00
21781;BME280;52576;53.614;9.894;2022-11-15T07:10:25;100567.47;;;7.88;100.00
21781;BME280;52576;53.614;9.894;2022-11-15T07:11:47;100572.63;;;7.90;100.00
21781;BME280;52576;53.614;9.894;2022-11-15T07:13:09;100579.38;;;7.92;100.00
21781;BME280;52576;53.614;9.894;2022-11-15T07:14:29;100574.88;;;7.93;100.00
21781;BME280;52576;53.614;9.894;2022-11-15T07:15:51;100576.34;;;7.95;100.00
21781;BME280;52576;53.614;9.894;2022-11-15T07:17:12;100569.16;;;7.96;100.00
21781;BME280;52576;53.614;9.894;2022-11-15T07:18:34;100583.13;;;7.98;100.00
21781;BME280;52576;53.614;9.894;2022-11-15T07:19:56;100573.31;;;7.98;100.00
21781;BME280;52576;53.614;9.894;2022-11-15T07:21:17;100577.41;;;8.01;100.00
21781;BME280;52576;53.614;9.894;2022-11-15T07:22:47;100578.25;;;8.01;100.00
21781;BME280;52576;53.614;9.894;2022-11-15T07:24:08;100578.25;;;8.01;100.00